sensor_id;sensor_type;location;lat;lon;timestamp;P1;durP1;ratioP1;P2;durP2;ratioP2
20734;SDS011;10528;52.124;5.196;2023-05-16T00:00:37;15.65;;;2.28;;
20734;SDS011;10528;52.124;5.196;2023-05-16T00:03:04;10.63;;;1.67;;
20734;SDS011;10528;52.124;5.196;2023-05-16T00:05:32;10.30;;;1.92;;
20734;SDS011;10528;52.124;5.196;2023-05-16T00:07:59;8.93;;;1.83;;
20734;SDS011;10528;52.124;5.196;2023-05-16T00:10:26;12.82;;;2.30;;
20734;SDS011;10528;52.124;5.196;2023-05-16T00:12:53;8.30;;;2.30;;
20734;SDS011;10528;52.124;5.196;2023-05-16T00:15:21;11.88;;;1.77;;
20734;SDS011;10528;52.124;5.196;2023-05-16T00:17:50;13.60;;;2.03;;
20734;SDS011;10528;52.124;5.196;2023-05-16T00:20:16;9.85;;;1.83;;
20734;SDS011;10528;52.124;5.196;2023-05-16T00:22:48;10.70;;;1.90;;
20734;SDS011;10528;52.124;5.196;2023-05-16T00:25:15;10.18;;;2.22;;
20734;SDS011;10528;52.124;5.196;2023-05-16T00:27:42;12.60;;;2.30;;
20734;SDS011;10528;52.124;5.196;2023-05-16T00:30:09;8.90;;;1.45;;
20734;SDS011;10528;52.124;5.196;2023-05-16T00:32:36;8.07;;;2.00;;
20734;SDS011;10528;52.124;5.196;2023-05-16T00:35:03;11.25;;;2.10;;
20734;SDS011;10528;52.124;5.196;2023-05-16T00:37:32;8.50;;;2.03;;
20734;SDS011;10528;52.124;5.196;2023-05-16T00:39:59;8.93;;;1.73;;
20734;SDS011;10528;52.124;5.196;2023-05-16T00:42:25;8.30;;;1.75;;
20734;SDS011;10528;52.124;5.196;2023-05-16T00:44:52;13.65;;;2.08;;
20734;SDS011;10528;52.124;5.196;2023-05-16T00:47:19;11.63;;;1.98;;
20734;SDS011;10528;52.124;5.196;2023-05-16T00:49:46;8.65;;;1.90;;
20734;SDS011;10528;52.124;5.196;2023-05-16T00:52:14;9.77;;;1.73;;
20734;SDS011;10528;52.124;5.196;2023-05-16T00:54:41;9.98;;;1.58;;
20734;SDS011;10528;52.124;5.196;2023-05-16T00:57:08;11.70;;;2.13;;
20734;SDS011;10528;52.124;5.196;2023-05-16T00:59:35;9.32;;;1.63;;
20734;SDS011;10528;52.124;5.196;2023-05-16T01:02:02;9.48;;;1.83;;
20734;SDS011;10528;52.124;5.196;2023-05-16T01:04:29;11.88;;;2.03;;
20734;SDS011;10528;52.124;5.196;2023-05-16T01:06:59;8.52;;;1.80;;
20734;SDS011;10528;52.124;5.196;2023-05-16T01:09:27;10.07;;;2.00;;
20734;SDS011;10528;52.124;5.196;2023-05-16T01:23:09;9.90;;;1.63;;
20734;SDS011;10528;52.124;5.196;2023-05-16T01:26:14;12.10;;;1.63;;
20734;SDS011;10528;52.124;5.196;2023-05-16T01:28:50;9.15;;;1.65;;
20734;SDS011;10528;52.124;5.196;2023-05-16T01:31:19;10.07;;;2.28;;
20734;SDS011;10528;52.124;5.196;2023-05-16T01:33:47;9.98;;;1.90;;
20734;SDS011;10528;52.124;5.196;2023-05-16T01:36:24;17.10;;;2.53;;
20734;SDS011;10528;52.124;5.196;2023-05-16T01:42:07;12.55;;;1.80;;
20734;SDS011;10528;52.124;5.196;2023-05-16T01:47:19;5.68;;;1.38;;
20734;SDS011;10528;52.124;5.196;2023-05-16T01:50:01;10.73;;;1.98;;
20734;SDS011;10528;52.124;5.196;2023-05-16T01:52:49;8.40;;;1.38;;
20734;SDS011;10528;52.124;5.196;2023-05-16T01:55:31;9.20;;;1.58;;
20734;SDS011;10528;52.124;5.196;2023-05-16T01:58:09;7.78;;;2.03;;
20734;SDS011;10528;52.124;5.196;2023-05-16T02:00:41;12.27;;;2.03;;
20734;SDS011;10528;52.124;5.196;2023-05-16T02:03:09;13.43;;;2.03;;
20734;SDS011;10528;52.124;5.196;2023-05-16T02:05:37;9.63;;;1.80;;
20734;SDS011;10528;52.124;5.196;2023-05-16T02:08:04;12.73;;;1.90;;
20734;SDS011;10528;52.124;5.196;2023-05-16T02:10:31;10.82;;;2.47;;
20734;SDS011;10528;52.124;5.196;2023-05-16T02:12:58;12.18;;;1.67;;
20734;SDS011;10528;52.124;5.196;2023-05-16T02:15:25;9.68;;;1.77;;
20734;SDS011;10528;52.124;5.196;2023-05-16T02:17:53;9.80;;;2.03;;
20734;SDS011;10528;52.124;5.196;2023-05-16T02:20:20;9.65;;;1.83;;
20734;SDS011;10528;52.124;5.196;2023-05-16T02:22:47;12.57;;;1.88;;
20734;SDS011;10528;52.124;5.196;2023-05-16T02:25:15;10.60;;;2.15;;
20734;SDS011;10528;52.124;5.196;2023-05-16T02:27:42;5.47;;;1.58;;
20734;SDS011;10528;52.124;5.196;2023-05-16T02:30:09;13.50;;;2.13;;
20734;SDS011;10528;52.124;5.196;2023-05-16T02:32:39;12.63;;;1.63;;
20734;SDS011;10528;52.124;5.196;2023-05-16T02:35:10;8.48;;;2.03;;
20734;SDS011;10528;52.124;5.196;2023-05-16T02:37:37;12.98;;;1.85;;
20734;SDS011;10528;52.124;5.196;2023-05-16T02:40:05;7.15;;;1.70;;
20734;SDS011;10528;52.124;5.196;2023-05-16T02:42:35;10.45;;;1.77;;
20734;SDS011;10528;52.124;5.196;2023-05-16T02:45:02;11.52;;;1.60;;
20734;SDS011;10528;52.124;5.196;2023-05-16T02:47:29;11.85;;;1.80;;
20734;SDS011;10528;52.124;5.196;2023-05-16T02:49:56;9.27;;;1.90;;
20734;SDS011;10528;52.124;5.196;2023-05-16T02:52:22;11.07;;;1.80;;
20734;SDS011;10528;52.124;5.196;2023-05-16T02:54:49;8.73;;;1.83;;
20734;SDS011;10528;52.124;5.196;2023-05-16T02:57:36;8.00;;;1.35;;
20734;SDS011;10528;52.124;5.196;2023-05-16T03:00:03;9.48;;;1.63;;
20734;SDS011;10528;52.124;5.196;2023-05-16T03:02:31;7.43;;;1.63;;
20734;SDS011;10528;52.124;5.196;2023-05-16T03:04:58;10.70;;;1.60;;
20734;SDS011;10528;52.124;5.196;2023-05-16T03:07:25;10.38;;;1.63;;
20734;SDS011;10528;52.124;5.196;2023-05-16T03:09:52;10.13;;;2.03;;
20734;SDS011;10528;52.124;5.196;2023-05-16T03:12:18;6.72;;;1.63;;
20734;SDS011;10528;52.124;5.196;2023-05-16T03:14:45;7.20;;;1.83;;
20734;SDS011;10528;52.124;5.196;2023-05-16T03:17:12;10.18;;;1.50;;
20734;SDS011;10528;52.124;5.196;2023-05-16T03:19:39;6.18;;;1.70;;
20734;SDS011;10528;52.124;5.196;2023-05-16T03:22:06;5.78;;;1.38;;
20734;SDS011;10528;52.124;5.196;2023-05-16T03:24:32;7.10;;;1.77;;
20734;SDS011;10528;52.124;5.196;2023-05-16T03:26:59;13.48;;;2.00;;
20734;SDS011;10528;52.124;5.196;2023-05-16T03:29:29;11.43;;;1.85;;
20734;SDS011;10528;52.124;5.196;2023-05-16T03:31:56;9.30;;;1.58;;
20734;SDS011;10528;52.124;5.196;2023-05-16T03:34:23;5.85;;;1.52;;
20734;SDS011;10528;52.124;5.196;2023-05-16T03:36:51;8.95;;;1.65;;
20734;SDS011;10528;52.124;5.196;2023-05-16T03:39:18;9.57;;;1.90;;
20734;SDS011;10528;52.124;5.196;2023-05-16T03:41:45;7.53;;;1.67;;
20734;SDS011;10528;52.124;5.196;2023-05-16T03:44:11;10.32;;;1.58;;
20734;SDS011;10528;52.124;5.196;2023-05-16T03:46:38;8.77;;;1.50;;
20734;SDS011;10528;52.124;5.196;2023-05-16T03:49:05;6.35;;;1.67;;
20734;SDS011;10528;52.124;5.196;2023-05-16T03:51:32;9.35;;;1.88;;
20734;SDS011;10528;52.124;5.196;2023-05-16T03:53:59;5.15;;;1.38;;
20734;SDS011;10528;52.124;5.196;2023-05-16T03:56:26;13.23;;;2.13;;
20734;SDS011;10528;52.124;5.196;2023-05-16T03:58:53;10.02;;;1.88;;
20734;SDS011;10528;52.124;5.196;2023-05-16T04:01:20;10.80;;;1.95;;
20734;SDS011;10528;52.124;5.196;2023-05-16T04:03:47;5.40;;;1.50;;
20734;SDS011;10528;52.124;5.196;2023-05-16T04:06:15;10.73;;;1.45;;
20734;SDS011;10528;52.124;5.196;2023-05-16T04:08:43;5.07;;;1.83;;
20734;SDS011;10528;52.124;5.196;2023-05-16T04:11:10;11.13;;;2.38;;
20734;SDS011;10528;52.124;5.196;2023-05-16T04:13:37;10.38;;;1.65;;
20734;SDS011;10528;52.124;5.196;2023-05-16T04:16:04;10.13;;;1.95;;
20734;SDS011;10528;52.124;5.196;2023-05-16T04:18:31;11.32;;;1.77;;
20734;SDS011;10528;52.124;5.196;2023-05-16T04:20:59;6.88;;;1.60;;
20734;SDS011;10528;52.124;5.196;2023-05-16T04:23:25;7.82;;;1.70;;
20734;SDS011;10528;52.124;5.196;2023-05-16T04:25:52;8.90;;;1.70;;
20734;SDS011;10528;52.124;5.196;2023-05-16T04:28:22;7.18;;;1.50;;
20734;SDS011;10528;52.124;5.196;2023-05-16T04:30:48;9.15;;;1.90;;
20734;SDS011;10528;52.124;5.196;2023-05-16T04:33:16;10.77;;;1.90;;
20734;SDS011;10528;52.124;5.196;2023-05-16T04:35:43;8.35;;;1.88;;
20734;SDS011;10528;52.124;5.196;2023-05-16T04:38:10;9.57;;;1.63;;
20734;SDS011;10528;52.124;5.196;2023-05-16T04:40:37;8.88;;;1.90;;
20734;SDS011;10528;52.124;5.196;2023-05-16T04:43:06;9.77;;;1.75;;
20734;SDS011;10528;52.124;5.196;2023-05-16T04:45:33;9.05;;;1.83;;
20734;SDS011;10528;52.124;5.196;2023-05-16T04:48:03;10.15;;;2.38;;
20734;SDS011;10528;52.124;5.196;2023-05-16T04:50:30;10.50;;;2.38;;
20734;SDS011;10528;52.124;5.196;2023-05-16T04:52:57;9.50;;;2.10;;
20734;SDS011;10528;52.124;5.196;2023-05-16T04:55:24;10.32;;;2.20;;
20734;SDS011;10528;52.124;5.196;2023-05-16T04:57:51;7.07;;;1.60;;
20734;SDS011;10528;52.124;5.196;2023-05-16T05:00:18;8.25;;;1.45;;
20734;SDS011;10528;52.124;5.196;2023-05-16T05:02:45;12.05;;;1.92;;
20734;SDS011;10528;52.124;5.196;2023-05-16T05:05:12;6.88;;;1.48;;
20734;SDS011;10528;52.124;5.196;2023-05-16T05:07:39;9.30;;;1.40;;
20734;SDS011;10528;52.124;5.196;2023-05-16T05:10:06;8.45;;;1.42;;
20734;SDS011;10528;52.124;5.196;2023-05-16T05:12:34;11.73;;;1.98;;
20734;SDS011;10528;52.124;5.196;2023-05-16T05:15:01;6.85;;;1.70;;
20734;SDS011;10528;52.124;5.196;2023-05-16T05:17:29;7.57;;;1.65;;
20734;SDS011;10528;52.124;5.196;2023-05-16T05:19:56;8.52;;;2.08;;
20734;SDS011;10528;52.124;5.196;2023-05-16T05:22:24;6.00;;;1.58;;
20734;SDS011;10528;52.124;5.196;2023-05-16T05:24:51;9.27;;;1.67;;
20734;SDS011;10528;52.124;5.196;2023-05-16T05:27:18;9.52;;;1.88;;
20734;SDS011;10528;52.124;5.196;2023-05-16T05:29:45;9.25;;;1.77;;
20734;SDS011;10528;52.124;5.196;2023-05-16T05:32:12;11.85;;;2.42;;
20734;SDS011;10528;52.124;5.196;2023-05-16T05:34:39;7.63;;;2.00;;
20734;SDS011;10528;52.124;5.196;2023-05-16T05:37:06;11.57;;;2.22;;
20734;SDS011;10528;52.124;5.196;2023-05-16T05:39:32;8.40;;;1.52;;
20734;SDS011;10528;52.124;5.196;2023-05-16T05:42:00;8.73;;;1.60;;
20734;SDS011;10528;52.124;5.196;2023-05-16T05:44:29;9.05;;;2.05;;
20734;SDS011;10528;52.124;5.196;2023-05-16T05:46:56;9.90;;;1.45;;
20734;SDS011;10528;52.124;5.196;2023-05-16T05:49:24;12.98;;;2.42;;
20734;SDS011;10528;52.124;5.196;2023-05-16T05:51:52;9.00;;;1.63;;
20734;SDS011;10528;52.124;5.196;2023-05-16T05:54:19;7.60;;;1.58;;
20734;SDS011;10528;52.124;5.196;2023-05-16T05:56:46;8.55;;;1.65;;
20734;SDS011;10528;52.124;5.196;2023-05-16T05:59:13;6.22;;;1.20;;
20734;SDS011;10528;52.124;5.196;2023-05-16T06:01:40;8.10;;;1.30;;
20734;SDS011;10528;52.124;5.196;2023-05-16T06:04:09;11.00;;;2.03;;
20734;SDS011;10528;52.124;5.196;2023-05-16T06:06:37;7.57;;;1.30;;
20734;SDS011;10528;52.124;5.196;2023-05-16T06:09:05;6.82;;;1.23;;
20734;SDS011;10528;52.124;5.196;2023-05-16T06:11:32;6.57;;;1.55;;
20734;SDS011;10528;52.124;5.196;2023-05-16T06:13:59;6.30;;;1.17;;
20734;SDS011;10528;52.124;5.196;2023-05-16T06:16:26;5.40;;;1.48;;
20734;SDS011;10528;52.124;5.196;2023-05-16T06:18:53;5.82;;;1.48;;
20734;SDS011;10528;52.124;5.196;2023-05-16T06:21:20;5.55;;;1.10;;
20734;SDS011;10528;52.124;5.196;2023-05-16T06:23:47;7.03;;;1.20;;
20734;SDS011;10528;52.124;5.196;2023-05-16T06:26:14;9.05;;;1.95;;
20734;SDS011;10528;52.124;5.196;2023-05-16T06:28:40;5.00;;;1.15;;
20734;SDS011;10528;52.124;5.196;2023-05-16T06:31:07;4.60;;;1.08;;
20734;SDS011;10528;52.124;5.196;2023-05-16T06:33:35;6.47;;;1.15;;
20734;SDS011;10528;52.124;5.196;2023-05-16T06:36:01;7.85;;;1.52;;
20734;SDS011;10528;52.124;5.196;2023-05-16T06:38:28;5.43;;;1.17;;
20734;SDS011;10528;52.124;5.196;2023-05-16T06:40:55;3.67;;;1.15;;
20734;SDS011;10528;52.124;5.196;2023-05-16T06:43:22;4.93;;;1.05;;
20734;SDS011;10528;52.124;5.196;2023-05-16T06:45:49;8.48;;;1.23;;
20734;SDS011;10528;52.124;5.196;2023-05-16T06:48:16;4.75;;;0.98;;
20734;SDS011;10528;52.124;5.196;2023-05-16T06:50:47;4.93;;;1.00;;
20734;SDS011;10528;52.124;5.196;2023-05-16T06:53:17;5.90;;;1.25;;
20734;SDS011;10528;52.124;5.196;2023-05-16T06:55:45;6.70;;;1.25;;
20734;SDS011;10528;52.124;5.196;2023-05-16T06:58:12;5.05;;;1.10;;
20734;SDS011;10528;52.124;5.196;2023-05-16T07:00:39;5.10;;;1.02;;
20734;SDS011;10528;52.124;5.196;2023-05-16T07:03:07;6.15;;;1.20;;
20734;SDS011;10528;52.124;5.196;2023-05-16T07:05:34;5.15;;;1.00;;
20734;SDS011;10528;52.124;5.196;2023-05-16T07:08:01;4.47;;;1.05;;
20734;SDS011;10528;52.124;5.196;2023-05-16T07:10:29;6.03;;;0.90;;
20734;SDS011;10528;52.124;5.196;2023-05-16T07:12:56;3.00;;;1.00;;
20734;SDS011;10528;52.124;5.196;2023-05-16T07:15:23;3.72;;;0.90;;
20734;SDS011;10528;52.124;5.196;2023-05-16T07:17:50;3.67;;;0.98;;
20734;SDS011;10528;52.124;5.196;2023-05-16T07:20:17;4.55;;;1.00;;
20734;SDS011;10528;52.124;5.196;2023-05-16T07:22:44;6.18;;;1.15;;
20734;SDS011;10528;52.124;5.196;2023-05-16T07:25:11;7.45;;;1.13;;
20734;SDS011;10528;52.124;5.196;2023-05-16T07:27:40;5.72;;;1.20;;
20734;SDS011;10528;52.124;5.196;2023-05-16T07:30:10;6.32;;;1.15;;
20734;SDS011;10528;52.124;5.196;2023-05-16T07:32:39;2.88;;;0.60;;
20734;SDS011;10528;52.124;5.196;2023-05-16T07:35:06;3.80;;;0.80;;
20734;SDS011;10528;52.124;5.196;2023-05-16T07:37:34;5.85;;;0.93;;
20734;SDS011;10528;52.124;5.196;2023-05-16T07:40:01;3.97;;;0.98;;
20734;SDS011;10528;52.124;5.196;2023-05-16T07:42:29;4.30;;;0.70;;
20734;SDS011;10528;52.124;5.196;2023-05-16T07:44:57;3.97;;;0.85;;
20734;SDS011;10528;52.124;5.196;2023-05-16T07:47:23;5.68;;;0.90;;
20734;SDS011;10528;52.124;5.196;2023-05-16T07:49:51;4.80;;;0.90;;
20734;SDS011;10528;52.124;5.196;2023-05-16T07:52:18;4.47;;;1.20;;
20734;SDS011;10528;52.124;5.196;2023-05-16T07:54:45;9.48;;;0.95;;
20734;SDS011;10528;52.124;5.196;2023-05-16T07:57:13;5.90;;;1.60;;
20734;SDS011;10528;52.124;5.196;2023-05-16T07:59:41;9.70;;;1.00;;
20734;SDS011;10528;52.124;5.196;2023-05-16T08:02:09;7.70;;;1.10;;
20734;SDS011;10528;52.124;5.196;2023-05-16T08:04:37;4.68;;;1.20;;
20734;SDS011;10528;52.124;5.196;2023-05-16T08:07:04;4.85;;;0.80;;
20734;SDS011;10528;52.124;5.196;2023-05-16T08:09:31;7.95;;;1.40;;
20734;SDS011;10528;52.124;5.196;2023-05-16T08:11:58;3.45;;;0.80;;
20734;SDS011;10528;52.124;5.196;2023-05-16T08:14:29;2.97;;;0.75;;
20734;SDS011;10528;52.124;5.196;2023-05-16T08:16:58;2.42;;;0.60;;
20734;SDS011;10528;52.124;5.196;2023-05-16T08:19:25;6.22;;;0.80;;
20734;SDS011;10528;52.124;5.196;2023-05-16T08:21:53;4.75;;;0.77;;
20734;SDS011;10528;52.124;5.196;2023-05-16T08:24:20;6.28;;;0.80;;
20734;SDS011;10528;52.124;5.196;2023-05-16T08:26:47;3.08;;;0.70;;
20734;SDS011;10528;52.124;5.196;2023-05-16T08:29:14;2.80;;;0.80;;
20734;SDS011;10528;52.124;5.196;2023-05-16T08:31:41;4.28;;;0.80;;
20734;SDS011;10528;52.124;5.196;2023-05-16T08:34:08;6.05;;;0.70;;
20734;SDS011;10528;52.124;5.196;2023-05-16T08:36:36;3.28;;;0.90;;
20734;SDS011;10528;52.124;5.196;2023-05-16T08:39:03;3.05;;;0.68;;
20734;SDS011;10528;52.124;5.196;2023-05-16T08:41:30;4.78;;;0.88;;
20734;SDS011;10528;52.124;5.196;2023-05-16T08:43:57;4.57;;;0.90;;
20734;SDS011;10528;52.124;5.196;2023-05-16T08:46:24;4.57;;;1.08;;
20734;SDS011;10528;52.124;5.196;2023-05-16T08:48:53;3.83;;;0.63;;
20734;SDS011;10528;52.124;5.196;2023-05-16T08:51:27;2.90;;;0.60;;
20734;SDS011;10528;52.124;5.196;2023-05-16T08:54:02;3.58;;;0.98;;
20734;SDS011;10528;52.124;5.196;2023-05-16T08:56:32;3.50;;;0.85;;
20734;SDS011;10528;52.124;5.196;2023-05-16T08:59:01;3.88;;;0.73;;
20734;SDS011;10528;52.124;5.196;2023-05-16T09:01:29;6.32;;;0.70;;
20734;SDS011;10528;52.124;5.196;2023-05-16T09:04:00;6.22;;;1.05;;
20734;SDS011;10528;52.124;5.196;2023-05-16T09:06:30;5.30;;;1.00;;
20734;SDS011;10528;52.124;5.196;2023-05-16T09:08:57;5.53;;;0.98;;
20734;SDS011;10528;52.124;5.196;2023-05-16T09:11:24;5.57;;;0.93;;
20734;SDS011;10528;52.124;5.196;2023-05-16T09:13:51;6.90;;;1.75;;
20734;SDS011;10528;52.124;5.196;2023-05-16T09:16:18;5.63;;;0.93;;
20734;SDS011;10528;52.124;5.196;2023-05-16T09:18:53;3.40;;;0.70;;
20734;SDS011;10528;52.124;5.196;2023-05-16T09:21:25;4.35;;;0.90;;
20734;SDS011;10528;52.124;5.196;2023-05-16T09:24:04;4.47;;;0.90;;
20734;SDS011;10528;52.124;5.196;2023-05-16T09:26:34;3.35;;;1.00;;
20734;SDS011;10528;52.124;5.196;2023-05-16T09:29:11;4.32;;;0.88;;
20734;SDS011;10528;52.124;5.196;2023-05-16T09:31:39;7.57;;;1.00;;
20734;SDS011;10528;52.124;5.196;2023-05-16T09:34:09;5.57;;;1.08;;
20734;SDS011;10528;52.124;5.196;2023-05-16T09:36:36;4.70;;;0.68;;
20734;SDS011;10528;52.124;5.196;2023-05-16T09:39:06;1.67;;;0.63;;
20734;SDS011;10528;52.124;5.196;2023-05-16T09:41:33;2.63;;;0.70;;
20734;SDS011;10528;52.124;5.196;2023-05-16T09:44:04;3.85;;;1.05;;
20734;SDS011;10528;52.124;5.196;2023-05-16T09:46:36;2.83;;;0.52;;
20734;SDS011;10528;52.124;5.196;2023-05-16T09:49:03;2.97;;;0.75;;
20734;SDS011;10528;52.124;5.196;2023-05-16T09:51:31;5.13;;;1.02;;
20734;SDS011;10528;52.124;5.196;2023-05-16T09:53:58;5.05;;;1.00;;
20734;SDS011;10528;52.124;5.196;2023-05-16T09:56:25;4.45;;;1.23;;
20734;SDS011;10528;52.124;5.196;2023-05-16T09:58:52;3.78;;;0.75;;
20734;SDS011;10528;52.124;5.196;2023-05-16T10:01:19;5.75;;;1.05;;
20734;SDS011;10528;52.124;5.196;2023-05-16T10:03:46;6.82;;;1.10;;
20734;SDS011;10528;52.124;5.196;2023-05-16T10:06:13;4.47;;;0.82;;
20734;SDS011;10528;52.124;5.196;2023-05-16T10:08:42;7.32;;;1.13;;
20734;SDS011;10528;52.124;5.196;2023-05-16T10:11:09;5.55;;;1.10;;
20734;SDS011;10528;52.124;5.196;2023-05-16T10:13:37;6.10;;;1.00;;
20734;SDS011;10528;52.124;5.196;2023-05-16T10:16:06;5.45;;;0.80;;
20734;SDS011;10528;52.124;5.196;2023-05-16T10:18:37;5.68;;;0.95;;
20734;SDS011;10528;52.124;5.196;2023-05-16T10:21:08;4.05;;;0.90;;
20734;SDS011;10528;52.124;5.196;2023-05-16T10:23:40;6.65;;;1.00;;
20734;SDS011;10528;52.124;5.196;2023-05-16T10:26:13;3.13;;;1.05;;
20734;SDS011;10528;52.124;5.196;2023-05-16T10:28:42;4.25;;;0.90;;
20734;SDS011;10528;52.124;5.196;2023-05-16T10:31:10;3.45;;;0.90;;
20734;SDS011;10528;52.124;5.196;2023-05-16T10:33:39;5.32;;;0.75;;
20734;SDS011;10528;52.124;5.196;2023-05-16T10:36:10;2.28;;;0.63;;
20734;SDS011;10528;52.124;5.196;2023-05-16T10:38:38;4.53;;;1.08;;
20734;SDS011;10528;52.124;5.196;2023-05-16T10:41:06;4.30;;;0.80;;
20734;SDS011;10528;52.124;5.196;2023-05-16T10:43:35;4.35;;;0.90;;
20734;SDS011;10528;52.124;5.196;2023-05-16T10:46:09;5.05;;;0.68;;
20734;SDS011;10528;52.124;5.196;2023-05-16T10:48:37;4.70;;;0.90;;
20734;SDS011;10528;52.124;5.196;2023-05-16T10:52:00;4.35;;;0.70;;
20734;SDS011;10528;52.124;5.196;2023-05-16T10:54:06;3.33;;;0.80;;
20734;SDS011;10528;52.124;5.196;2023-05-16T10:56:36;3.50;;;0.68;;
20734;SDS011;10528;52.124;5.196;2023-05-16T10:59:03;3.75;;;0.70;;
20734;SDS011;10528;52.124;5.196;2023-05-16T11:01:51;2.45;;;0.50;;
20734;SDS011;10528;52.124;5.196;2023-05-16T11:04:20;2.67;;;0.80;;
20734;SDS011;10528;52.124;5.196;2023-05-16T11:06:51;5.45;;;0.82;;
20734;SDS011;10528;52.124;5.196;2023-05-16T11:09:22;3.83;;;0.68;;
20734;SDS011;10528;52.124;5.196;2023-05-16T11:11:59;3.72;;;0.80;;
20734;SDS011;10528;52.124;5.196;2023-05-16T11:17:11;6.82;;;0.98;;
20734;SDS011;10528;52.124;5.196;2023-05-16T11:19:56;3.80;;;0.65;;
20734;SDS011;10528;52.124;5.196;2023-05-16T11:22:31;2.83;;;0.80;;
20734;SDS011;10528;52.124;5.196;2023-05-16T11:25:07;4.82;;;0.93;;
20734;SDS011;10528;52.124;5.196;2023-05-16T11:27:41;7.30;;;0.80;;
20734;SDS011;10528;52.124;5.196;2023-05-16T11:30:11;5.75;;;0.93;;
20734;SDS011;10528;52.124;5.196;2023-05-16T11:32:41;5.93;;;1.23;;
20734;SDS011;10528;52.124;5.196;2023-05-16T11:35:11;4.95;;;0.90;;
20734;SDS011;10528;52.124;5.196;2023-05-16T11:37:41;4.85;;;0.60;;
20734;SDS011;10528;52.124;5.196;2023-05-16T11:40:10;3.55;;;0.70;;
20734;SDS011;10528;52.124;5.196;2023-05-16T11:42:39;3.47;;;0.82;;
20734;SDS011;10528;52.124;5.196;2023-05-16T11:45:10;5.55;;;0.90;;
20734;SDS011;10528;52.124;5.196;2023-05-16T11:47:42;4.22;;;0.65;;
20734;SDS011;10528;52.124;5.196;2023-05-16T11:50:11;3.00;;;0.65;;
20734;SDS011;10528;52.124;5.196;2023-05-16T11:52:47;1.55;;;0.70;;
20734;SDS011;10528;52.124;5.196;2023-05-16T11:55:19;4.25;;;0.88;;
20734;SDS011;10528;52.124;5.196;2023-05-16T11:58:06;4.55;;;0.88;;
20734;SDS011;10528;52.124;5.196;2023-05-16T12:00:33;2.63;;;0.68;;
20734;SDS011;10528;52.124;5.196;2023-05-16T12:03:01;4.57;;;0.73;;
20734;SDS011;10528;52.124;5.196;2023-05-16T12:05:31;3.80;;;0.98;;
20734;SDS011;10528;52.124;5.196;2023-05-16T12:08:01;3.65;;;0.80;;
20734;SDS011;10528;52.124;5.196;2023-05-16T12:10:31;5.32;;;0.90;;
20734;SDS011;10528;52.124;5.196;2023-05-16T12:13:00;3.75;;;0.65;;
20734;SDS011;10528;52.124;5.196;2023-05-16T12:15:28;2.92;;;0.70;;
20734;SDS011;10528;52.124;5.196;2023-05-16T12:17:56;5.72;;;0.90;;
20734;SDS011;10528;52.124;5.196;2023-05-16T12:20:23;4.50;;;1.00;;
20734;SDS011;10528;52.124;5.196;2023-05-16T12:22:51;5.28;;;0.90;;
20734;SDS011;10528;52.124;5.196;2023-05-16T12:25:25;7.03;;;1.33;;
20734;SDS011;10528;52.124;5.196;2023-05-16T12:27:59;5.03;;;1.27;;
20734;SDS011;10528;52.124;5.196;2023-05-16T12:30:29;7.40;;;0.82;;
20734;SDS011;10528;52.124;5.196;2023-05-16T12:32:58;4.22;;;1.10;;
20734;SDS011;10528;52.124;5.196;2023-05-16T12:35:30;3.13;;;0.77;;
20734;SDS011;10528;52.124;5.196;2023-05-16T12:37:59;4.63;;;0.95;;
20734;SDS011;10528;52.124;5.196;2023-05-16T12:40:30;5.25;;;1.10;;
20734;SDS011;10528;52.124;5.196;2023-05-16T12:42:57;4.85;;;1.10;;
20734;SDS011;10528;52.124;5.196;2023-05-16T12:45:25;3.58;;;0.80;;
20734;SDS011;10528;52.124;5.196;2023-05-16T12:47:53;6.10;;;0.88;;
20734;SDS011;10528;52.124;5.196;2023-05-16T12:50:21;4.22;;;0.98;;
20734;SDS011;10528;52.124;5.196;2023-05-16T12:52:49;5.10;;;0.82;;
20734;SDS011;10528;52.124;5.196;2023-05-16T12:55:20;4.75;;;0.98;;
20734;SDS011;10528;52.124;5.196;2023-05-16T12:57:48;4.15;;;0.82;;
20734;SDS011;10528;52.124;5.196;2023-05-16T13:00:18;3.83;;;0.80;;
20734;SDS011;10528;52.124;5.196;2023-05-16T13:02:46;3.80;;;0.75;;
20734;SDS011;10528;52.124;5.196;2023-05-16T13:05:14;3.58;;;0.77;;
20734;SDS011;10528;52.124;5.196;2023-05-16T13:07:42;3.78;;;1.00;;
20734;SDS011;10528;52.124;5.196;2023-05-16T13:10:09;4.57;;;1.10;;
20734;SDS011;10528;52.124;5.196;2023-05-16T13:12:40;3.53;;;0.93;;
20734;SDS011;10528;52.124;5.196;2023-05-16T13:15:08;6.13;;;1.40;;
20734;SDS011;10528;52.124;5.196;2023-05-16T13:17:37;5.22;;;0.88;;
20734;SDS011;10528;52.124;5.196;2023-05-16T13:20:06;3.22;;;0.75;;
20734;SDS011;10528;52.124;5.196;2023-05-16T13:22:35;4.38;;;1.13;;
20734;SDS011;10528;52.124;5.196;2023-05-16T13:25:02;8.98;;;1.58;;
20734;SDS011;10528;52.124;5.196;2023-05-16T13:27:31;3.90;;;1.00;;
20734;SDS011;10528;52.124;5.196;2023-05-16T13:29:59;4.07;;;0.80;;
20734;SDS011;10528;52.124;5.196;2023-05-16T13:32:26;4.50;;;0.95;;
20734;SDS011;10528;52.124;5.196;2023-05-16T13:34:53;3.78;;;0.80;;
20734;SDS011;10528;52.124;5.196;2023-05-16T13:37:20;6.88;;;1.00;;
20734;SDS011;10528;52.124;5.196;2023-05-16T13:39:49;3.60;;;1.23;;
20734;SDS011;10528;52.124;5.196;2023-05-16T13:42:17;7.45;;;1.00;;
20734;SDS011;10528;52.124;5.196;2023-05-16T13:44:44;3.70;;;0.90;;
20734;SDS011;10528;52.124;5.196;2023-05-16T13:47:11;4.97;;;1.08;;
20734;SDS011;10528;52.124;5.196;2023-05-16T13:49:38;4.53;;;0.82;;
20734;SDS011;10528;52.124;5.196;2023-05-16T13:52:05;3.67;;;1.15;;
20734;SDS011;10528;52.124;5.196;2023-05-16T13:54:32;4.35;;;0.80;;
20734;SDS011;10528;52.124;5.196;2023-05-16T13:56:59;6.85;;;1.02;;
20734;SDS011;10528;52.124;5.196;2023-05-16T13:59:27;3.00;;;0.75;;
20734;SDS011;10528;52.124;5.196;2023-05-16T14:02:14;3.83;;;0.70;;
20734;SDS011;10528;52.124;5.196;2023-05-16T14:04:41;6.22;;;1.25;;
20734;SDS011;10528;52.124;5.196;2023-05-16T14:07:08;3.65;;;0.80;;
20734;SDS011;10528;52.124;5.196;2023-05-16T14:09:35;3.15;;;0.80;;
20734;SDS011;10528;52.124;5.196;2023-05-16T14:12:05;4.30;;;0.70;;
20734;SDS011;10528;52.124;5.196;2023-05-16T14:14:33;3.88;;;0.70;;
20734;SDS011;10528;52.124;5.196;2023-05-16T14:17:01;4.50;;;0.90;;
20734;SDS011;10528;52.124;5.196;2023-05-16T14:19:29;4.95;;;1.17;;
20734;SDS011;10528;52.124;5.196;2023-05-16T14:21:56;3.92;;;1.00;;
20734;SDS011;10528;52.124;5.196;2023-05-16T14:24:23;4.82;;;0.77;;
20734;SDS011;10528;52.124;5.196;2023-05-16T14:26:50;3.00;;;0.70;;
20734;SDS011;10528;52.124;5.196;2023-05-16T14:29:20;3.92;;;0.77;;
20734;SDS011;10528;52.124;5.196;2023-05-16T14:31:47;4.47;;;0.80;;
20734;SDS011;10528;52.124;5.196;2023-05-16T14:34:15;4.55;;;0.80;;
20734;SDS011;10528;52.124;5.196;2023-05-16T14:36:41;2.15;;;0.70;;
20734;SDS011;10528;52.124;5.196;2023-05-16T14:39:09;4.32;;;1.20;;
20734;SDS011;10528;52.124;5.196;2023-05-16T14:41:36;4.25;;;0.75;;
20734;SDS011;10528;52.124;5.196;2023-05-16T14:44:02;4.00;;;0.90;;
20734;SDS011;10528;52.124;5.196;2023-05-16T14:46:29;6.05;;;0.93;;
20734;SDS011;10528;52.124;5.196;2023-05-16T14:48:57;4.40;;;0.93;;
20734;SDS011;10528;52.124;5.196;2023-05-16T14:51:23;4.35;;;1.00;;
20734;SDS011;10528;52.124;5.196;2023-05-16T14:53:50;2.53;;;0.50;;
20734;SDS011;10528;52.124;5.196;2023-05-16T14:56:17;1.95;;;0.43;;
20734;SDS011;10528;52.124;5.196;2023-05-16T14:58:44;5.40;;;0.80;;
20734;SDS011;10528;52.124;5.196;2023-05-16T15:01:11;4.82;;;0.80;;
20734;SDS011;10528;52.124;5.196;2023-05-16T15:03:40;2.60;;;0.70;;
20734;SDS011;10528;52.124;5.196;2023-05-16T15:06:10;2.15;;;0.60;;
20734;SDS011;10528;52.124;5.196;2023-05-16T15:08:36;3.53;;;0.90;;
20734;SDS011;10528;52.124;5.196;2023-05-16T15:11:04;2.75;;;0.60;;
20734;SDS011;10528;52.124;5.196;2023-05-16T15:13:30;4.65;;;0.80;;